Погода Ла-Калерана неделю

Гуанахуато, Мексика

15 - 21 июня
  • 15июня
    Сегодня
    +17°
    +36°
    Практически безоблачно
    ВремяПогодаТемператураВлажностьДавлениеВетер, м/сВероятность осадков
    00:00Небольшая облачность+23°C60 %621 мм4.5 м/с3 %
    03:00Практически безоблачно+20°C65 %620 мм2.5 м/с4 %
    06:00Практически безоблачно+19°C76 %620 мм3.0 м/с3 %
    09:00Ясно и безоблачно+24°C49 %622 мм2.9 м/с2 %
    12:00Ясно и безоблачно+31°C26 %622 мм3.0 м/с2 %
    15:00Практически безоблачно+36°C16 %621 мм5.0 м/с2 %
    18:00Ясно и безоблачно+33°C19 %620 мм7.2 м/с2 %
    21:00Ясно и безоблачно+26°C33 %619 мм7.1 м/с2 %
  • 16июня
    Воскресенье
    +18°
    +37°
    Ясно и безоблачно
    ВремяПогодаТемператураВлажностьДавлениеВетер, м/сВероятность осадков
    00:00Ясно и безоблачно+22°C52 %620 мм3.9 м/с2 %
    03:00Ясно и безоблачно+19°C61 %619 мм1.5 м/с2 %
    06:00Ясно и безоблачно+18°C75 %619 мм1.7 м/с2 %
    09:00Ясно и безоблачно+23°C44 %620 мм0.7 м/с2 %
    12:00Ясно и безоблачно+30°C24 %621 мм0.2 м/с2 %
    15:00Ясно и безоблачно+37°C13 %620 мм4.6 м/с2 %
    18:00Ясно и безоблачно+34°C18 %619 мм6.7 м/с2 %
    21:00Ясно и безоблачно+26°C24 %618 мм7.8 м/с2 %
  • 17июня
    Понедельник
    +18°
    +37°
    Практически безоблачно
    ВремяПогодаТемператураВлажностьДавлениеВетер, м/сВероятность осадков
    00:00Ясно и безоблачно+23°C39 %618 мм4.0 м/с2 %
    03:00Ясно и безоблачно+19°C52 %618 мм2.0 м/с2 %
    06:00Ясно и безоблачно+18°C58 %617 мм2.2 м/с2 %
    09:00Ясно и безоблачно+24°C35 %619 мм0.9 м/с2 %
    12:00Ясно и безоблачно+31°C18 %620 мм1.3 м/с2 %
    15:00Практически безоблачно+36°C13 %619 мм2.1 м/с2 %
    18:00Практически безоблачно+35°C12 %617 мм4.8 м/с2 %
    21:00Ясно и безоблачно+27°C28 %617 мм6.5 м/с6 %
  • 18июня
    Вторник
    +19°
    +38°
    Ясно и безоблачно
    ВремяПогодаТемператураВлажностьДавлениеВетер, м/сВероятность осадков
    00:00Ясно и безоблачно+23°C41 %618 мм2.6 м/с9 %
    03:00Ясно и безоблачно+21°C50 %617 мм0.4 м/с2 %
    06:00Ясно и безоблачно+19°C57 %616 мм0.8 м/с2 %
    09:00Ясно и безоблачно+25°C46 %619 мм1.2 м/с2 %
    12:00Ясно и безоблачно+30°C24 %619 мм2.3 м/с7 %
    15:00Ясно и безоблачно+37°C11 %618 мм1.4 м/с5 %
    18:00Ясно и безоблачно+35°C11 %617 мм5.7 м/с3 %
    21:00Ясно и безоблачно+27°C34 %617 мм7.9 м/с13 %
  • 19июня
    Среда
    +18°
    +37°
    Практически безоблачно
    ВремяПогодаТемператураВлажностьДавлениеВетер, м/сВероятность осадков
    00:00Ясно и безоблачно+24°C43 %618 мм3.0 м/с12 %
    03:00Ясно и безоблачно+21°C52 %617 мм3.0 м/с4 %
    06:00Ясно и безоблачно+20°C59 %617 мм0.0 м/с5 %
    09:00Ясно и безоблачно+25°C37 %619 мм0.9 м/с8 %
    12:00Небольшая облачность+31°C20 %619 мм1.0 м/с31 %
    15:00Практически безоблачно+36°C12 %619 мм5.2 м/с29 %
    18:00Облачно с прояснениями+32°C19 %616 мм6.8 м/с41 %
    21:00Облачно с прояснениями, небольшой дождь+24°C51 %616 мм7.1 м/с52 %
Мы используем cookies
Соглашаюсь